General Aviation Weather

Text Reports

Enter one or more of the following location identifiers separated by a space:

Zip Code, Four-Character ICAO or Three-Character IATA airport codes.

METAR - Aviation Routine Weather Report
KLHX - La Junta, Colorado
Updated at 10:53 AM GMT on September 30, 2014 (4:53 AM MDT):
METAR KLHX 301053Z AUTO VRB04KT 10SM CLR 09/07 A2988 RMK AO2 SLP069 T00890067 $
TAF - Terminal Area Forecast
KLHX - La Junta, Colorado
Updated at 10:53 AM GMT on September 30, 2014 (4:53 AM MDT):
No TAF is currently available for this location.
Decoded:
No decoded TAF is available.
PIREP - Pilot Weather Report
KLHX - La Junta, Colorado
Updated at 10:53 AM GMT on September 30, 2014 (4:53 AM MDT):
No PIREP is currently available for this location.
AIRMET - Airmens Meteorological Information
KLHX - La Junta, Colorado
Updated at 10:53 AM GMT on September 30, 2014 (4:53 AM MDT):
No AIRMET is currently available for this location.
SIGMET - Significant Meteorological Information
KLHX - La Junta, Colorado
Updated at 10:53 AM GMT on September 30, 2014 (4:53 AM MDT):
No SIGMET is currently available for this location.
NOTAM - Notice to Airmen
KLHX - La Junta, Colorado
Updated at 10:53 AM GMT on September 30, 2014 (4:53 AM MDT):
No NOTAM is currently available for this location.
Forecast Area
KLHX - La Junta, Colorado
Updated at 10:53 AM GMT on September 30, 2014 (4:53 AM MDT):
No NOTAM is currently available for this location.
Aviation Weather Maps